createdAt,value
2022-12-18T00:00:24.796Z,87.47
2022-12-18T00:02:55.014Z,86.67
2022-12-18T00:05:24.441Z,86.86
2022-12-18T00:07:54.683Z,86.43
2022-12-18T00:10:23.154Z,86.45
2022-12-18T00:12:51.369Z,86.54
2022-12-18T00:15:19.758Z,86.05
2022-12-18T00:17:48.049Z,87.07
2022-12-18T00:20:16.317Z,87.00
2022-12-18T00:22:44.507Z,87.62
2022-12-18T00:25:13.992Z,87.11
2022-12-18T00:27:41.921Z,87.45
2022-12-18T00:30:11.128Z,87.50
2022-12-18T00:32:41.006Z,87.50
2022-12-18T00:35:10.128Z,88.62
2022-12-18T00:37:38.728Z,88.39
2022-12-18T00:40:10.552Z,88.59
2022-12-18T00:42:57.779Z,88.70
2022-12-18T00:45:28.031Z,88.88
2022-12-18T00:47:57.025Z,89.10
2022-12-18T00:50:27.139Z,88.33
2022-12-18T00:52:55.403Z,88.38
2022-12-18T00:55:24.250Z,88.00
2022-12-18T00:57:54.801Z,87.29
2022-12-18T01:00:24.371Z,87.33
2022-12-18T01:02:52.682Z,87.83
2022-12-18T01:05:21.455Z,87.87
2022-12-18T01:07:49.576Z,86.99
2022-12-18T01:10:17.633Z,86.26
2022-12-18T01:12:46.727Z,85.82
2022-12-18T01:15:19.725Z,86.28
2022-12-18T01:17:47.814Z,86.86
2022-12-18T01:20:17.857Z,87.09
2022-12-18T01:22:47.492Z,86.43
2022-12-18T01:25:16.520Z,86.24
2022-12-18T01:27:45.251Z,86.14
2022-12-18T01:30:14.308Z,86.01
2022-12-18T01:32:44.197Z,86.04
2022-12-18T01:35:12.528Z,86.14
2022-12-18T01:37:40.502Z,86.40
2022-12-18T01:40:09.975Z,86.87
2022-12-18T01:42:38.469Z,87.38
2022-12-18T01:45:10.704Z,87.26
2022-12-18T01:47:41.799Z,87.13
2022-12-18T01:50:14.232Z,87.51
2022-12-18T01:52:43.497Z,87.40
2022-12-18T01:55:13.597Z,88.04
2022-12-18T01:57:42.659Z,87.15
2022-12-18T02:00:16.215Z,86.74
2022-12-18T02:02:46.598Z,87.29
2022-12-18T02:05:19.565Z,87.20
2022-12-18T02:07:57.206Z,87.72
2022-12-18T02:10:30.143Z,87.86
2022-12-18T02:13:02.702Z,87.38
2022-12-18T02:15:40.032Z,87.23
2022-12-18T02:18:12.611Z,87.45
2022-12-18T02:20:46.829Z,86.91
2022-12-18T02:23:30.151Z,86.45
2022-12-18T02:26:10.382Z,86.30
2022-12-18T02:28:44.023Z,86.71
2022-12-18T02:31:16.739Z,86.72
2022-12-18T02:33:48.788Z,87.05
2022-12-18T02:36:18.536Z,86.91
2022-12-18T02:38:48.834Z,87.21
2022-12-18T02:41:22.629Z,87.48
2022-12-18T02:43:52.233Z,88.08
2022-12-18T02:46:42.215Z,87.72
2022-12-18T02:49:34.819Z,87.12
2022-12-18T02:52:08.172Z,86.56
2022-12-18T02:54:47.464Z,86.84
2022-12-18T02:57:22.153Z,85.53
2022-12-18T02:59:57.658Z,85.70
2022-12-18T03:02:32.843Z,85.84
2022-12-18T03:05:05.081Z,86.31
2022-12-18T03:07:40.245Z,86.93
2022-12-18T03:10:14.738Z,87.11
2022-12-18T03:12:49.015Z,88.11
2022-12-18T03:15:21.743Z,88.10
2022-12-18T03:18:01.253Z,87.54
2022-12-18T03:20:33.446Z,88.23
2022-12-18T03:23:06.013Z,88.21
2022-12-18T03:25:35.399Z,87.94
2022-12-18T03:28:05.561Z,87.56
2022-12-18T03:30:40.047Z,86.98
2022-12-18T03:33:11.665Z,87.14
2022-12-18T03:35:44.922Z,87.59
2022-12-18T03:38:14.932Z,86.60
2022-12-18T03:40:57.249Z,87.32
2022-12-18T03:43:44.086Z,87.19
2022-12-18T03:46:20.027Z,87.04
2022-12-18T03:48:51.300Z,87.59
2022-12-18T03:51:27.217Z,87.16
2022-12-18T03:53:59.875Z,86.74
2022-12-18T03:56:39.274Z,86.97
2022-12-18T03:59:10.999Z,86.39
2022-12-18T04:01:43.489Z,86.33
2022-12-18T04:04:15.543Z,86.46
2022-12-18T04:06:45.780Z,86.30
2022-12-18T04:09:14.817Z,87.29
2022-12-18T04:11:48.721Z,88.36
2022-12-18T04:14:19.788Z,88.44
2022-12-18T04:16:52.691Z,89.17
2022-12-18T04:19:25.230Z,88.71
2022-12-18T04:21:56.518Z,88.58
2022-12-18T04:24:25.787Z,87.70
2022-12-18T04:27:05.594Z,87.02
2022-12-18T04:29:44.150Z,87.66
2022-12-18T04:32:12.324Z,87.63
2022-12-18T04:34:42.954Z,87.93
2022-12-18T04:37:10.995Z,88.16
2022-12-18T04:39:40.069Z,87.90
2022-12-18T04:42:15.511Z,87.96
2022-12-18T04:44:45.679Z,88.02
2022-12-18T04:47:13.951Z,87.03
2022-12-18T04:49:42.357Z,86.96
2022-12-18T04:52:10.461Z,87.70
2022-12-18T04:54:38.397Z,87.00
2022-12-18T04:57:07.400Z,87.49
2022-12-18T04:59:35.624Z,87.24
2022-12-18T05:02:05.802Z,87.39
2022-12-18T05:04:33.996Z,88.03
2022-12-18T05:07:02.299Z,88.32
2022-12-18T05:09:31.675Z,88.54
2022-12-18T05:12:00.157Z,89.47
2022-12-18T05:14:28.542Z,89.40
2022-12-18T05:17:00.836Z,88.45
2022-12-18T05:19:34.213Z,87.54
2022-12-18T05:22:03.305Z,87.92
2022-12-18T05:24:31.714Z,87.57
2022-12-18T05:26:59.670Z,88.00
2022-12-18T05:29:30.052Z,88.49
2022-12-18T05:31:58.075Z,87.87
2022-12-18T05:34:28.616Z,87.49
2022-12-18T05:36:58.621Z,87.58
2022-12-18T05:39:27.783Z,87.71
2022-12-18T05:41:55.743Z,87.67
2022-12-18T05:44:23.777Z,87.37
2022-12-18T05:46:51.948Z,87.23
2022-12-18T05:49:20.138Z,87.65
2022-12-18T05:51:49.361Z,86.95
2022-12-18T05:54:18.901Z,87.49
2022-12-18T05:56:48.865Z,88.10
2022-12-18T05:59:17.308Z,87.85
2022-12-18T06:01:45.879Z,87.75
2022-12-18T06:04:14.645Z,87.92
2022-12-18T06:06:43.106Z,86.92
2022-12-18T06:09:11.582Z,87.38
2022-12-18T06:11:41.277Z,87.38
2022-12-18T06:14:12.414Z,87.87
2022-12-18T06:16:41.729Z,88.58
2022-12-18T06:19:09.913Z,88.63
2022-12-18T06:21:37.909Z,88.82
2022-12-18T06:24:06.794Z,88.93
2022-12-18T06:26:36.253Z,88.42
2022-12-18T06:29:05.589Z,88.46
2022-12-18T06:31:34.248Z,89.35
2022-12-18T06:34:04.735Z,88.94
2022-12-18T06:36:34.912Z,89.59
2022-12-18T06:39:03.412Z,89.11
2022-12-18T06:41:32.095Z,88.84
2022-12-18T06:44:00.699Z,88.71
2022-12-18T06:46:30.443Z,89.25
2022-12-18T06:48:59.746Z,89.60
2022-12-18T06:51:28.513Z,89.52
2022-12-18T06:53:58.283Z,89.53
2022-12-18T06:56:26.261Z,89.40
2022-12-18T06:58:55.868Z,88.63
2022-12-18T07:01:26.491Z,88.37
2022-12-18T07:03:56.810Z,88.17
2022-12-18T07:06:27.224Z,88.39
2022-12-18T07:08:57.520Z,88.87
2022-12-18T07:11:25.865Z,88.24
2022-12-18T07:13:54.614Z,88.26
2022-12-18T07:16:25.582Z,87.89
2022-12-18T07:18:56.644Z,87.43
2022-12-18T07:21:25.777Z,87.64
2022-12-18T07:23:55.396Z,86.37
2022-12-18T07:26:24.274Z,86.77
2022-12-18T07:28:52.941Z,86.16
2022-12-18T07:31:23.038Z,86.80
2022-12-18T07:33:54.350Z,87.05
2022-12-18T07:36:27.776Z,87.49
2022-12-18T07:38:58.862Z,87.71
2022-12-18T07:41:28.445Z,87.20
2022-12-18T07:43:57.564Z,87.58
2022-12-18T07:46:25.913Z,86.92
2022-12-18T07:48:54.167Z,86.55
2022-12-18T07:51:22.501Z,87.09
2022-12-18T07:53:52.386Z,86.27
2022-12-18T07:56:30.554Z,86.75
2022-12-18T07:59:04.702Z,86.08
2022-12-18T08:01:33.093Z,85.90
2022-12-18T08:04:01.400Z,87.33
2022-12-18T08:06:30.590Z,87.85
2022-12-18T08:08:59.929Z,88.03
2022-12-18T08:11:30.583Z,87.87
2022-12-18T08:13:58.918Z,87.86
2022-12-18T08:16:28.656Z,86.40
2022-12-18T08:18:57.232Z,86.95
2022-12-18T08:21:27.448Z,86.85
2022-12-18T08:23:57.403Z,86.89
2022-12-18T08:26:29.089Z,87.40
2022-12-18T08:28:58.514Z,86.68
2022-12-18T08:31:28.748Z,85.74
2022-12-18T08:33:58.056Z,85.70
2022-12-18T08:36:27.330Z,85.69
2022-12-18T08:38:56.634Z,86.76
2022-12-18T08:41:27.495Z,87.01
2022-12-18T08:44:13.197Z,86.14
2022-12-18T08:46:42.794Z,86.14
2022-12-18T08:49:11.952Z,85.99
2022-12-18T08:51:41.117Z,85.31
2022-12-18T08:54:09.301Z,86.02
2022-12-18T08:56:39.423Z,86.69
2022-12-18T08:59:07.420Z,86.66
2022-12-18T09:01:35.771Z,87.15
2022-12-18T09:04:05.034Z,86.88
2022-12-18T09:06:35.334Z,87.55
2022-12-18T09:09:05.283Z,87.11
2022-12-18T09:11:35.502Z,87.16
2022-12-18T09:14:05.774Z,86.75
2022-12-18T09:16:36.183Z,86.00
2022-12-18T09:19:05.218Z,86.01
2022-12-18T09:21:37.104Z,86.26
2022-12-18T09:24:08.703Z,85.60
2022-12-18T09:26:37.941Z,85.73
2022-12-18T09:29:09.156Z,85.45
2022-12-18T09:31:39.287Z,85.63
2022-12-18T09:34:09.063Z,85.24
2022-12-18T09:36:37.369Z,85.24
2022-12-18T09:39:08.461Z,85.35
2022-12-18T09:41:46.530Z,86.02
2022-12-18T09:44:27.298Z,85.63
2022-12-18T09:47:14.617Z,86.11
2022-12-18T09:49:47.404Z,85.85
2022-12-18T09:52:20.492Z,86.80
2022-12-18T09:54:52.232Z,87.08
2022-12-18T09:57:22.938Z,86.14
2022-12-18T09:59:56.809Z,86.37
2022-12-18T10:02:27.434Z,86.76
2022-12-18T10:05:05.347Z,86.42
2022-12-18T10:07:51.519Z,86.70
2022-12-18T10:10:29.677Z,86.62
2022-12-18T10:13:05.094Z,85.88
2022-12-18T10:15:41.168Z,85.44
2022-12-18T10:18:22.257Z,86.09
2022-12-18T10:20:57.039Z,86.36
2022-12-18T10:23:29.365Z,86.76
2022-12-18T10:26:03.266Z,86.73
2022-12-18T10:28:33.560Z,85.97
2022-12-18T10:31:03.816Z,86.69
2022-12-18T10:33:33.239Z,87.07
2022-12-18T10:36:02.469Z,87.77
2022-12-18T10:38:32.676Z,88.11
2022-12-18T10:41:05.461Z,88.28
2022-12-18T10:43:35.976Z,88.36
2022-12-18T10:46:20.142Z,88.38
2022-12-18T10:48:57.424Z,88.20
2022-12-18T10:51:31.649Z,89.74
2022-12-18T10:54:02.116Z,88.52
2022-12-18T10:56:32.786Z,87.90
2022-12-18T10:59:03.141Z,87.20
2022-12-18T11:01:48.391Z,87.81
2022-12-18T11:04:20.479Z,88.13
2022-12-18T11:07:01.944Z,88.22
2022-12-18T11:09:35.724Z,88.39
2022-12-18T11:12:07.942Z,87.63
2022-12-18T11:14:47.387Z,87.06
2022-12-18T11:17:25.830Z,87.77
2022-12-18T11:19:56.159Z,87.16
2022-12-18T11:22:28.625Z,87.58
2022-12-18T11:27:53.869Z,87.21
2022-12-18T11:30:27.764Z,87.21
2022-12-18T11:33:01.948Z,86.89
2022-12-18T11:35:55.478Z,87.32
2022-12-18T11:38:26.581Z,86.19
2022-12-18T11:40:59.338Z,86.72
2022-12-18T11:43:31.234Z,87.23
2022-12-18T11:46:05.241Z,86.51
2022-12-18T11:48:41.050Z,87.58
2022-12-18T11:51:27.961Z,88.11
2022-12-18T11:53:56.227Z,87.65
2022-12-18T11:56:36.160Z,87.88
2022-12-18T11:59:11.558Z,88.11
2022-12-18T12:01:53.063Z,88.27
2022-12-18T12:04:52.981Z,88.70
2022-12-18T12:07:31.442Z,88.39
2022-12-18T12:10:07.191Z,87.85
2022-12-18T12:12:51.292Z,87.01
2022-12-18T12:15:36.763Z,86.99
2022-12-18T12:18:11.803Z,87.33
2022-12-18T12:20:53.932Z,87.77
2022-12-18T12:23:29.438Z,87.41
2022-12-18T12:26:05.701Z,88.18
2022-12-18T12:28:54.987Z,86.80
2022-12-18T12:31:49.747Z,86.79
2022-12-18T12:34:21.336Z,86.77
2022-12-18T12:37:07.768Z,86.70
2022-12-18T12:39:40.001Z,86.47
2022-12-18T12:42:31.082Z,86.69
2022-12-18T12:45:04.138Z,85.99
2022-12-18T12:47:37.780Z,85.99
2022-12-18T12:50:13.309Z,85.86
2022-12-18T12:52:46.253Z,86.23
2022-12-18T12:55:19.327Z,85.75
2022-12-18T12:58:28.216Z,85.29
2022-12-18T13:01:10.402Z,85.27
2022-12-18T13:03:48.597Z,85.03
2022-12-18T13:06:22.371Z,85.30
2022-12-18T13:08:58.342Z,84.71
2022-12-18T13:12:00.298Z,85.67
2022-12-18T13:14:35.738Z,85.91
2022-12-18T13:17:37.086Z,85.70
2022-12-18T13:20:11.807Z,84.82
2022-12-18T13:22:44.154Z,85.68
2022-12-18T13:25:36.231Z,84.93
2022-12-18T13:28:13.750Z,85.16
2022-12-18T13:30:58.334Z,85.11
2022-12-18T13:34:09.431Z,85.78
2022-12-18T13:36:37.282Z,85.46
2022-12-18T13:39:36.117Z,84.82
2022-12-18T13:43:01.199Z,85.10
2022-12-18T13:45:42.401Z,86.10
2022-12-18T13:48:21.265Z,86.79
2022-12-18T13:51:17.136Z,86.73
2022-12-18T13:53:49.235Z,87.12
2022-12-18T13:56:18.437Z,87.55
2022-12-18T13:59:06.207Z,86.78
2022-12-18T14:01:35.490Z,87.39
2022-12-18T14:04:15.323Z,86.73
2022-12-18T14:06:44.090Z,86.56
2022-12-18T14:09:21.596Z,87.31
2022-12-18T14:11:50.552Z,87.42
2022-12-18T14:14:22.758Z,87.41
2022-12-18T14:16:53.562Z,86.45
2022-12-18T14:19:23.020Z,86.89
2022-12-18T14:21:53.405Z,86.59
2022-12-18T14:24:23.898Z,86.16
2022-12-18T14:26:52.854Z,86.36
2022-12-18T14:29:25.627Z,85.97
2022-12-18T14:32:17.862Z,86.56
2022-12-18T14:34:47.739Z,87.40
2022-12-18T14:37:17.160Z,86.35
2022-12-18T14:39:55.491Z,86.80
2022-12-18T14:42:29.227Z,86.58
2022-12-18T14:45:41.583Z,87.25
2022-12-18T14:48:22.825Z,87.61
2022-12-18T14:50:59.806Z,87.26
2022-12-18T14:53:36.598Z,86.48
2022-12-18T14:56:06.197Z,86.82
2022-12-18T14:58:36.349Z,87.52
2022-12-18T15:01:06.263Z,87.61
2022-12-18T15:03:36.503Z,87.31
2022-12-18T15:06:19.013Z,87.38
2022-12-18T15:08:47.206Z,86.87
2022-12-18T15:11:29.088Z,87.32
2022-12-18T15:14:00.161Z,86.84
2022-12-18T15:16:30.416Z,87.02
2022-12-18T15:18:59.086Z,87.17
2022-12-18T15:21:31.507Z,87.01
2022-12-18T15:24:03.279Z,87.05
2022-12-18T15:26:39.457Z,88.20
2022-12-18T15:29:22.927Z,87.97
2022-12-18T15:32:06.697Z,87.32
2022-12-18T15:34:36.125Z,87.24
2022-12-18T15:37:04.781Z,86.98
2022-12-18T15:39:33.112Z,87.06
2022-12-18T15:42:22.765Z,87.29
2022-12-18T15:44:51.485Z,87.44
2022-12-18T15:47:21.569Z,87.78
2022-12-18T15:49:51.276Z,86.78
2022-12-18T15:52:26.881Z,86.27
2022-12-18T15:55:12.919Z,86.66
2022-12-18T15:57:42.681Z,86.81
2022-12-18T16:00:14.921Z,86.45
2022-12-18T16:02:46.223Z,85.84
2022-12-18T16:05:17.922Z,86.72
2022-12-18T16:07:46.611Z,86.50
2022-12-18T16:10:16.634Z,86.00
2022-12-18T16:12:45.145Z,85.88
2022-12-18T16:15:22.509Z,85.17
2022-12-18T16:17:53.765Z,85.87
2022-12-18T16:20:25.144Z,85.93
2022-12-18T16:22:54.227Z,86.15
2022-12-18T16:25:27.259Z,85.66
2022-12-18T16:27:57.419Z,85.63
2022-12-18T16:30:32.750Z,87.14
2022-12-18T16:33:08.877Z,85.66
2022-12-18T16:35:38.116Z,85.16
2022-12-18T16:38:09.028Z,85.35
2022-12-18T16:41:01.792Z,85.22
2022-12-18T16:43:31.272Z,85.76
2022-12-18T16:46:04.096Z,86.23
2022-12-18T16:48:38.070Z,86.10
2022-12-18T16:51:07.294Z,86.68
2022-12-18T16:53:35.812Z,86.01
2022-12-18T16:56:06.226Z,86.49
2022-12-18T16:58:35.483Z,86.64
2022-12-18T17:01:08.621Z,86.34
2022-12-18T17:03:39.628Z,85.92
2022-12-18T17:06:08.822Z,85.81
2022-12-18T17:08:39.282Z,85.88
2022-12-18T17:11:10.494Z,86.49
2022-12-18T17:13:40.873Z,85.95
2022-12-18T17:16:10.767Z,85.99
2022-12-18T17:18:41.241Z,86.48
2022-12-18T17:21:12.191Z,86.41
2022-12-18T17:23:44.576Z,87.03
2022-12-18T17:26:13.849Z,86.27
2022-12-18T17:28:44.197Z,86.11
2022-12-18T17:31:14.291Z,86.27
2022-12-18T17:33:46.347Z,86.24
2022-12-18T17:36:16.588Z,86.22
2022-12-18T17:38:44.887Z,86.02
2022-12-18T17:41:14.972Z,86.16
2022-12-18T17:43:45.979Z,85.78
2022-12-18T17:46:16.066Z,86.23
2022-12-18T17:48:45.632Z,86.93
2022-12-18T17:51:14.606Z,85.74
2022-12-18T17:53:43.044Z,86.74
2022-12-18T17:56:13.802Z,86.59
2022-12-18T17:58:42.264Z,86.35
2022-12-18T18:01:12.355Z,85.43
2022-12-18T18:03:43.077Z,85.77
2022-12-18T18:06:13.850Z,85.98
2022-12-18T18:08:42.812Z,85.90
2022-12-18T18:11:31.554Z,85.41
2022-12-18T18:14:03.069Z,86.03
2022-12-18T18:16:34.306Z,85.43
2022-12-18T18:19:08.004Z,86.26
2022-12-18T18:21:41.046Z,85.48
2022-12-18T18:24:10.456Z,86.34
2022-12-18T18:26:41.640Z,86.06
2022-12-18T18:29:11.159Z,86.41
2022-12-18T18:31:43.367Z,86.31
2022-12-18T18:34:16.173Z,85.61
2022-12-18T18:36:46.609Z,85.50
2022-12-18T18:39:15.677Z,85.57
2022-12-18T18:41:48.015Z,85.65
2022-12-18T18:44:18.501Z,85.48
2022-12-18T18:46:48.709Z,85.85
2022-12-18T18:49:18.377Z,85.58
2022-12-18T18:51:51.501Z,85.38
2022-12-18T18:54:22.380Z,85.24
2022-12-18T18:59:39.577Z,85.67
2022-12-18T19:02:08.232Z,85.71
2022-12-18T19:04:41.224Z,85.50
2022-12-18T19:07:24.047Z,85.54
2022-12-18T19:10:04.135Z,85.18
2022-12-18T19:12:51.795Z,85.80
2022-12-18T19:15:20.197Z,85.22
2022-12-18T19:17:48.382Z,85.17
2022-12-18T19:20:24.725Z,84.57
2022-12-18T19:22:58.636Z,85.60
2022-12-18T19:25:39.974Z,84.82
2022-12-18T19:28:13.256Z,85.46
2022-12-18T19:30:57.309Z,85.22
2022-12-18T19:33:44.620Z,84.80
2022-12-18T19:36:15.727Z,84.78
2022-12-18T19:38:45.615Z,85.48
2022-12-18T19:41:15.641Z,85.14
2022-12-18T19:43:44.822Z,85.16
2022-12-18T19:46:16.030Z,85.15
2022-12-18T19:48:45.776Z,85.28
2022-12-18T19:51:16.886Z,84.60
2022-12-18T19:53:47.737Z,84.19
2022-12-18T19:56:18.744Z,83.91
2022-12-18T19:58:47.779Z,84.93
2022-12-18T20:01:18.943Z,84.59
2022-12-18T20:03:52.357Z,84.41
2022-12-18T20:06:26.748Z,83.92
2022-12-18T20:09:00.097Z,84.67
2022-12-18T20:11:29.903Z,84.44
2022-12-18T20:13:59.359Z,84.37
2022-12-18T20:16:28.600Z,84.36
2022-12-18T20:18:58.040Z,84.14
2022-12-18T20:21:26.493Z,84.28
2022-12-18T20:23:57.025Z,84.25
2022-12-18T20:26:25.826Z,84.10
2022-12-18T20:28:55.799Z,83.79
2022-12-18T20:31:24.851Z,84.08
2022-12-18T20:33:54.482Z,84.40
2022-12-18T20:36:28.215Z,84.57
2022-12-18T20:39:01.605Z,84.29
2022-12-18T20:41:36.064Z,84.30
2022-12-18T20:44:11.174Z,84.72
2022-12-18T20:46:53.267Z,84.26
2022-12-18T20:49:21.429Z,83.72
2022-12-18T20:51:52.487Z,84.06
2022-12-18T20:54:22.120Z,83.60
2022-12-18T20:56:50.589Z,83.33
2022-12-18T20:59:20.304Z,84.21
2022-12-18T21:01:49.467Z,84.00
2022-12-18T21:04:20.328Z,83.58
2022-12-18T21:06:55.716Z,83.83
2022-12-18T21:09:36.214Z,83.46
2022-12-18T21:12:25.774Z,83.49
2022-12-18T21:14:54.934Z,83.35
2022-12-18T21:17:24.009Z,83.11
2022-12-18T21:19:56.234Z,83.20
2022-12-18T21:22:27.107Z,83.78
2022-12-18T21:24:57.866Z,83.38
2022-12-18T21:27:27.524Z,83.50
2022-12-18T21:29:55.879Z,83.02
2022-12-18T21:32:31.928Z,82.81
2022-12-18T21:35:01.855Z,82.36
2022-12-18T21:37:30.956Z,82.91
2022-12-18T21:40:00.968Z,82.40
2022-12-18T21:42:46.887Z,82.07
2022-12-18T21:45:16.066Z,81.89
2022-12-18T21:47:44.737Z,81.86
2022-12-18T21:50:13.547Z,82.19
2022-12-18T21:52:42.626Z,82.46
2022-12-18T21:55:13.398Z,81.91
2022-12-18T21:57:42.891Z,82.42
2022-12-18T22:00:18.871Z,81.74
2022-12-18T22:03:07.376Z,82.40
2022-12-18T22:05:37.318Z,83.01
2022-12-18T22:08:06.854Z,82.08
2022-12-18T22:10:37.353Z,81.50
2022-12-18T22:13:08.364Z,81.60
2022-12-18T22:15:36.981Z,81.79
2022-12-18T22:18:14.519Z,81.64
2022-12-18T22:20:43.297Z,81.83
2022-12-18T22:23:13.012Z,82.01
2022-12-18T22:25:42.610Z,80.99
2022-12-18T22:28:28.684Z,81.53
2022-12-18T22:30:59.521Z,81.18
2022-12-18T22:33:29.088Z,81.47
2022-12-18T22:35:58.599Z,81.50
2022-12-18T22:38:28.749Z,81.89
2022-12-18T22:40:59.369Z,81.65
2022-12-18T22:43:28.652Z,81.78
2022-12-18T22:45:57.184Z,81.21
2022-12-18T22:48:28.552Z,81.93
2022-12-18T22:51:00.636Z,81.29
2022-12-18T22:53:29.263Z,81.13
2022-12-18T22:56:05.821Z,81.18
2022-12-18T22:58:39.127Z,80.82
2022-12-18T23:01:09.758Z,81.44
2022-12-18T23:03:41.964Z,81.52
2022-12-18T23:06:14.822Z,80.85
2022-12-18T23:08:45.211Z,80.93
2022-12-18T23:11:19.790Z,81.30
2022-12-18T23:13:54.123Z,80.62
2022-12-18T23:16:25.962Z,81.15
2022-12-18T23:18:56.464Z,80.40
2022-12-18T23:21:26.763Z,80.66
2022-12-18T23:23:55.750Z,80.90
2022-12-18T23:26:27.281Z,81.21
2022-12-18T23:28:56.601Z,81.15
2022-12-18T23:31:27.513Z,80.82
2022-12-18T23:33:59.122Z,80.32
2022-12-18T23:36:27.686Z,80.72
2022-12-18T23:39:00.851Z,81.04
2022-12-18T23:41:32.663Z,80.84
2022-12-18T23:44:03.823Z,81.10
2022-12-18T23:46:40.581Z,80.65
2022-12-18T23:49:09.407Z,80.57
2022-12-18T23:51:37.842Z,80.47
2022-12-18T23:54:08.276Z,80.49
2022-12-18T23:56:40.069Z,81.02
2022-12-18T23:59:11.120Z,80.38
